createdAt,value
2019-04-22T00:01:17.170Z,11.80
2019-04-22T00:03:50.637Z,12.00
2019-04-22T00:06:39.028Z,12.20
2019-04-22T00:09:11.174Z,11.90
2019-04-22T00:11:48.536Z,12.00
2019-04-22T00:14:06.752Z,11.90
2019-04-22T00:16:59.554Z,12.00
2019-04-22T00:21:46.069Z,11.60
2019-04-22T00:24:38.782Z,11.20
2019-04-22T00:27:14.248Z,11.00
2019-04-22T00:32:27.232Z,11.40
2019-04-22T00:34:53.654Z,11.50
2019-04-22T00:37:30.051Z,10.90
2019-04-22T00:39:57.344Z,10.90
2019-04-22T00:42:38.346Z,10.90
2019-04-22T00:45:07.980Z,10.70
2019-04-22T00:47:32.520Z,11.00
2019-04-22T00:52:34.665Z,11.00
2019-04-22T00:57:38.770Z,10.20
2019-04-22T01:00:16.411Z,10.20
2019-04-22T01:02:41.882Z,10.40
2019-04-22T01:05:17.928Z,10.40
2019-04-22T01:07:44.790Z,10.60
2019-04-22T01:10:18.791Z,10.50
2019-04-22T01:12:44.043Z,10.20
2019-04-22T01:15:15.829Z,10.40
2019-04-22T01:17:45.049Z,10.50
2019-04-22T01:20:37.032Z,10.20
2019-04-22T01:22:55.935Z,10.10
2019-04-22T01:25:19.235Z,9.60
2019-04-22T01:27:44.830Z,9.80
2019-04-22T01:30:15.115Z,9.70
2019-04-22T01:32:38.516Z,9.50
2019-04-22T01:35:19.666Z,9.90
2019-04-22T01:37:54.662Z,9.90
2019-04-22T01:40:32.892Z,9.80
2019-04-22T01:43:30.096Z,9.40
2019-04-22T01:45:56.954Z,9.80
2019-04-22T01:48:28.482Z,9.80
2019-04-22T01:50:50.212Z,9.70
2019-04-22T01:53:27.502Z,10.20
2019-04-22T01:55:59.818Z,10.50
2019-04-22T01:58:23.360Z,10.30
2019-04-22T02:00:59.196Z,10.20
2019-04-22T02:03:34.263Z,10.10
2019-04-22T02:06:02.360Z,10.10
2019-04-22T02:08:40.840Z,9.70
2019-04-22T02:11:04.314Z,10.10
2019-04-22T02:13:36.630Z,9.50
2019-04-22T02:16:12.547Z,9.30
2019-04-22T02:18:39.403Z,9.60
2019-04-22T02:21:07.344Z,9.50
2019-04-22T02:26:22.807Z,9.30
2019-04-22T02:28:42.655Z,9.40
2019-04-22T02:41:26.595Z,9.60
2019-04-22T02:49:08.560Z,9.00
2019-04-22T02:56:31.300Z,9.80
2019-04-22T02:59:05.210Z,9.30
2019-04-22T03:01:31.382Z,8.80
2019-04-22T03:06:35.048Z,8.90
2019-04-22T03:09:05.436Z,8.80
2019-04-22T03:11:33.863Z,8.90
2019-04-22T03:14:19.004Z,8.60
2019-04-22T03:29:17.800Z,8.20
2019-04-22T03:32:36.176Z,8.50
2019-04-22T03:45:00.911Z,8.60
2019-04-22T03:47:19.411Z,8.40
2019-04-22T03:49:56.051Z,8.60
2019-04-22T03:52:16.366Z,8.30
2019-04-22T03:59:54.141Z,8.60
2019-04-22T04:07:38.387Z,8.70
2019-04-22T04:10:08.062Z,8.80
2019-04-22T04:12:34.769Z,8.40
2019-04-22T04:15:05.959Z,8.30
2019-04-22T04:17:33.232Z,8.60
2019-04-22T04:22:44.873Z,8.50
2019-04-22T04:30:23.263Z,8.50
2019-04-22T04:40:18.141Z,8.30
2019-04-22T04:42:41.967Z,8.30
2019-04-22T04:53:02.309Z,8.00
2019-04-22T04:55:25.310Z,8.20
2019-04-22T04:57:57.733Z,8.00
2019-04-22T05:02:53.111Z,8.40
2019-04-22T05:12:56.681Z,8.70
2019-04-22T05:15:33.307Z,8.50
2019-04-22T05:18:01.985Z,8.70
2019-04-22T05:22:51.618Z,9.00
2019-04-22T05:25:23.630Z,8.90
2019-04-22T05:28:08.797Z,8.70
2019-04-22T05:35:26.686Z,8.40
2019-04-22T05:37:58.043Z,8.60
2019-04-22T05:43:01.955Z,9.00
2019-04-22T05:45:43.051Z,9.30
2019-04-22T05:48:02.800Z,9.40
2019-04-22T05:50:31.995Z,9.50
2019-04-22T05:53:00.747Z,9.40
2019-04-22T05:55:41.600Z,9.40
2019-04-22T05:58:08.669Z,9.90
2019-04-22T06:01:05.519Z,10.00
2019-04-22T06:03:12.368Z,10.40
2019-04-22T06:05:43.883Z,10.70
2019-04-22T06:08:10.325Z,10.90
2019-04-22T06:10:45.644Z,10.80
2019-04-22T06:13:14.287Z,10.90
2019-04-22T06:15:49.674Z,11.00
2019-04-22T06:18:22.557Z,11.50
2019-04-22T06:20:59.412Z,11.60
2019-04-22T06:23:25.896Z,11.80
2019-04-22T06:26:07.878Z,12.30
2019-04-22T06:28:38.447Z,12.90
2019-04-22T06:31:02.554Z,13.10
2019-04-22T06:33:34.528Z,13.50
2019-04-22T06:36:01.996Z,14.10
2019-04-22T06:41:09.145Z,14.50
2019-04-22T06:43:35.043Z,14.80
2019-04-22T06:46:10.169Z,15.30
2019-04-22T06:48:35.688Z,15.70
2019-04-22T06:51:06.347Z,16.30
2019-04-22T06:53:41.177Z,16.30
2019-04-22T06:56:07.473Z,17.20
2019-04-22T06:58:40.980Z,17.30
2019-04-22T07:01:19.629Z,17.40
2019-04-22T07:06:12.763Z,17.00
2019-04-22T07:11:06.268Z,17.50
2019-04-22T07:13:48.541Z,17.80
2019-04-22T07:16:20.310Z,20.90
2019-04-22T07:18:53.287Z,23.80
2019-04-22T07:21:15.267Z,25.40
2019-04-22T07:24:03.090Z,26.80
2019-04-22T07:26:23.085Z,27.10
2019-04-22T07:28:49.196Z,26.70
2019-04-22T07:31:20.828Z,27.70
2019-04-22T07:33:51.784Z,27.90
2019-04-22T07:39:00.017Z,28.90
2019-04-22T07:41:28.800Z,28.60
2019-04-22T07:46:51.595Z,26.10
2019-04-22T07:48:58.949Z,24.80
2019-04-22T07:51:32.651Z,24.70
2019-04-22T07:54:01.721Z,24.00
2019-04-22T07:56:29.381Z,23.60
2019-04-22T07:59:07.360Z,24.00
2019-04-22T08:01:30.915Z,24.20
2019-04-22T08:06:44.213Z,24.40
2019-04-22T08:09:13.978Z,24.40
2019-04-22T08:14:14.776Z,24.00
2019-04-22T08:16:43.758Z,24.00
2019-04-22T08:19:18.275Z,24.30
2019-04-22T08:21:47.387Z,24.30
2019-04-22T08:24:14.729Z,24.20
2019-04-22T08:26:45.406Z,24.10
2019-04-22T08:29:20.369Z,24.00
2019-04-22T08:31:49.177Z,24.10
2019-04-22T08:34:23.338Z,23.90
2019-04-22T08:37:22.681Z,24.00
2019-04-22T08:39:18.735Z,24.00
2019-04-22T08:41:51.742Z,23.90
2019-04-22T08:44:28.013Z,23.70
2019-04-22T08:46:57.427Z,23.80
2019-04-22T08:49:21.759Z,24.10
2019-04-22T08:51:56.231Z,23.90
2019-04-22T08:54:31.251Z,24.00
2019-04-22T08:56:56.785Z,23.80
2019-04-22T08:59:41.570Z,23.70
2019-04-22T09:02:09.334Z,23.80
2019-04-22T09:04:31.185Z,23.30
2019-04-22T09:07:14.102Z,23.40
2019-04-22T09:09:39.153Z,23.40
2019-04-22T09:12:08.419Z,23.10
2019-04-22T09:14:40.594Z,23.30
2019-04-22T09:17:13.658Z,23.20
2019-04-22T09:19:35.186Z,23.30
2019-04-22T09:22:13.713Z,23.20
2019-04-22T09:24:43.415Z,23.50
2019-04-22T09:27:22.146Z,23.70
2019-04-22T09:29:42.999Z,23.80
2019-04-22T09:34:46.985Z,23.80
2019-04-22T09:37:26.824Z,23.80
2019-04-22T09:39:50.837Z,24.10
2019-04-22T09:42:21.972Z,24.30
2019-04-22T09:44:51.921Z,24.20
2019-04-22T09:47:24.958Z,24.20
2019-04-22T09:49:58.124Z,24.20
2019-04-22T09:52:26.249Z,24.40
2019-04-22T09:55:01.578Z,24.20
2019-04-22T09:57:24.632Z,24.20
2019-04-22T10:05:04.606Z,24.20
2019-04-22T10:15:00.263Z,24.40
2019-04-22T10:17:32.301Z,24.50
2019-04-22T10:20:08.026Z,24.60
2019-04-22T10:22:43.977Z,24.60
2019-04-22T10:25:10.677Z,24.60
2019-04-22T10:27:42.926Z,24.80
2019-04-22T10:30:16.860Z,24.60
2019-04-22T10:32:42.065Z,24.70
2019-04-22T10:35:12.147Z,25.00
2019-04-22T10:37:38.681Z,25.20
2019-04-22T10:40:13.624Z,25.40
2019-04-22T10:42:44.010Z,25.10
2019-04-22T10:45:16.394Z,25.10
2019-04-22T10:47:45.934Z,25.30
2019-04-22T10:50:16.528Z,25.30
2019-04-22T10:52:45.812Z,25.30
2019-04-22T10:55:15.490Z,25.40
2019-04-22T10:57:44.670Z,25.40
2019-04-22T11:00:15.454Z,25.30
2019-04-22T11:02:45.697Z,25.60
2019-04-22T11:05:16.723Z,25.70
2019-04-22T11:07:53.246Z,25.80
2019-04-22T11:10:33.215Z,25.90
2019-04-22T11:12:49.304Z,25.90
2019-04-22T11:15:18.843Z,25.70
2019-04-22T11:17:49.536Z,25.80
2019-04-22T11:20:19.906Z,25.80
2019-04-22T11:22:50.919Z,25.90
2019-04-22T11:25:21.486Z,25.90
2019-04-22T11:27:51.363Z,26.00
2019-04-22T11:30:40.640Z,26.30
2019-04-22T11:33:10.062Z,26.30
2019-04-22T11:35:39.577Z,26.60
2019-04-22T11:38:10.673Z,26.60
2019-04-22T11:40:51.651Z,26.20
2019-04-22T11:43:17.836Z,26.70
2019-04-22T11:45:47.268Z,26.90
2019-04-22T11:48:17.617Z,27.20
2019-04-22T11:50:48.116Z,27.20
2019-04-22T11:53:18.671Z,27.30
2019-04-22T11:55:48.973Z,27.40
2019-04-22T11:58:18.984Z,27.60
2019-04-22T12:00:49.496Z,27.40
2019-04-22T12:03:20.882Z,27.00
2019-04-22T12:05:52.074Z,26.70
2019-04-22T12:08:22.763Z,26.90
2019-04-22T12:10:56.891Z,27.10
2019-04-22T12:13:24.086Z,27.10
2019-04-22T12:15:55.358Z,27.30
2019-04-22T12:18:25.064Z,27.50
2019-04-22T12:20:55.229Z,27.80
2019-04-22T12:23:25.160Z,27.30
2019-04-22T12:26:18.437Z,27.40
2019-04-22T12:28:44.881Z,27.30
2019-04-22T12:31:15.539Z,26.70
2019-04-22T12:33:45.421Z,26.40
2019-04-22T12:36:15.089Z,26.00
2019-04-22T12:38:45.316Z,25.90
2019-04-22T12:41:16.072Z,25.70
2019-04-22T12:43:47.182Z,25.40
2019-04-22T12:46:18.350Z,25.30
2019-04-22T12:48:47.838Z,25.50
2019-04-22T12:51:18.719Z,25.30
2019-04-22T12:53:48.848Z,25.40
2019-04-22T12:56:19.650Z,25.00
2019-04-22T12:58:49.834Z,25.00
2019-04-22T13:01:19.284Z,24.80
2019-04-22T13:03:49.984Z,24.80
2019-04-22T13:06:19.579Z,24.90
2019-04-22T13:08:49.875Z,24.90
2019-04-22T13:11:22.990Z,25.00
2019-04-22T13:13:51.192Z,25.20
2019-04-22T13:16:20.747Z,25.30
2019-04-22T13:18:56.547Z,25.30
2019-04-22T13:21:22.584Z,25.10
2019-04-22T13:23:53.118Z,24.80
2019-04-22T13:26:23.258Z,24.80
2019-04-22T13:28:52.537Z,24.70
2019-04-22T13:31:22.767Z,24.70
2019-04-22T13:33:55.233Z,24.70
2019-04-22T13:36:25.890Z,24.80
2019-04-22T13:38:55.304Z,24.80
2019-04-22T13:41:35.725Z,24.70
2019-04-22T13:43:56.504Z,24.80
2019-04-22T13:46:31.382Z,24.80
2019-04-22T13:49:25.171Z,24.80
2019-04-22T13:56:47.560Z,24.90
2019-04-22T13:59:10.218Z,24.60
2019-04-22T14:01:46.504Z,24.60
2019-04-22T14:04:23.028Z,24.60
2019-04-22T14:06:52.550Z,24.80
2019-04-22T14:09:22.421Z,25.00
2019-04-22T14:11:58.277Z,25.10
2019-04-22T14:14:23.990Z,25.30
2019-04-22T14:16:53.438Z,25.30
2019-04-22T14:19:23.747Z,25.30
2019-04-22T14:21:53.802Z,25.20
2019-04-22T14:24:23.749Z,25.30
2019-04-22T14:27:08.823Z,25.10
2019-04-22T14:29:24.022Z,25.00
2019-04-22T14:32:04.230Z,24.90
2019-04-22T14:34:26.395Z,24.90
2019-04-22T14:36:55.568Z,24.70
2019-04-22T14:39:26.151Z,24.60
2019-04-22T14:42:13.627Z,24.50
2019-04-22T14:47:19.633Z,24.30
2019-04-22T14:49:53.884Z,24.30
2019-04-22T14:52:22.740Z,24.20
2019-04-22T14:54:44.680Z,24.20
2019-04-22T14:57:03.329Z,24.10
2019-04-22T14:59:32.757Z,24.10
2019-04-22T15:02:03.421Z,24.10
2019-04-22T15:04:33.139Z,24.10
2019-04-22T15:07:03.092Z,24.10
2019-04-22T15:09:32.324Z,24.10
2019-04-22T15:12:11.011Z,24.10
2019-04-22T15:14:33.149Z,24.20
2019-04-22T15:17:22.901Z,24.20
2019-04-22T15:20:37.512Z,24.30
2019-04-22T15:23:06.849Z,24.40
2019-04-22T15:25:36.755Z,24.40
2019-04-22T15:28:06.118Z,24.40
2019-04-22T15:30:35.329Z,24.40
2019-04-22T15:33:05.535Z,24.40
2019-04-22T15:35:35.442Z,24.30
2019-04-22T15:38:05.073Z,24.40
2019-04-22T15:40:34.634Z,24.30
2019-04-22T15:43:04.706Z,24.30
2019-04-22T15:45:34.929Z,24.20
2019-04-22T15:48:06.021Z,24.20
2019-04-22T15:50:36.886Z,24.10
2019-04-22T15:53:07.692Z,24.10
2019-04-22T15:55:38.789Z,24.10
2019-04-22T15:58:09.966Z,24.00
2019-04-22T16:00:51.623Z,24.00
2019-04-22T16:03:12.486Z,24.00
2019-04-22T16:05:42.080Z,24.00
2019-04-22T16:08:12.802Z,24.00
2019-04-22T16:10:42.164Z,23.90
2019-04-22T16:13:19.171Z,23.80
2019-04-22T16:15:42.803Z,23.80
2019-04-22T16:18:13.405Z,23.80
2019-04-22T16:20:43.951Z,23.70
2019-04-22T16:23:36.510Z,23.70
2019-04-22T16:26:42.522Z,23.70
2019-04-22T16:29:13.511Z,23.70
2019-04-22T16:31:43.561Z,23.60
2019-04-22T16:34:13.265Z,23.60
2019-04-22T16:36:42.862Z,23.60
2019-04-22T16:39:13.311Z,23.60
2019-04-22T16:41:44.451Z,23.50
2019-04-22T16:44:14.462Z,23.40
2019-04-22T16:46:43.775Z,23.40
2019-04-22T16:49:14.004Z,23.30
2019-04-22T16:51:43.342Z,23.30
2019-04-22T16:54:13.860Z,23.20
2019-04-22T16:56:43.913Z,23.20
2019-04-22T16:59:13.156Z,23.10
2019-04-22T17:02:01.386Z,23.10
2019-04-22T17:04:51.818Z,23.00
2019-04-22T17:07:22.474Z,22.90
2019-04-22T17:09:52.163Z,22.90
2019-04-22T17:12:21.778Z,22.80
2019-04-22T17:14:57.996Z,22.80
2019-04-22T17:17:22.326Z,22.70
2019-04-22T17:19:53.185Z,22.70
2019-04-22T17:22:23.929Z,22.70
2019-04-22T17:24:54.041Z,22.70
2019-04-22T17:27:24.387Z,22.70
2019-04-22T17:29:54.680Z,22.60
2019-04-22T17:32:25.380Z,22.60
2019-04-22T17:34:55.249Z,22.50
2019-04-22T17:37:28.499Z,22.60
2019-04-22T17:40:13.263Z,22.60
2019-04-22T17:42:46.493Z,22.60
2019-04-22T17:45:33.931Z,22.50
2019-04-22T17:48:23.936Z,22.40
2019-04-22T17:51:07.151Z,22.30
2019-04-22T17:53:33.349Z,22.40
2019-04-22T17:56:02.184Z,22.20
2019-04-22T17:58:40.255Z,22.30
2019-04-22T18:01:02.490Z,22.30
2019-04-22T18:03:22.751Z,22.30
2019-04-22T18:05:52.169Z,22.20
2019-04-22T18:08:34.607Z,22.10
2019-04-22T18:11:10.527Z,22.00
2019-04-22T18:13:40.947Z,22.00
2019-04-22T18:16:14.444Z,22.00
2019-04-22T18:18:42.853Z,21.90
2019-04-22T18:21:08.971Z,21.90
2019-04-22T18:23:28.311Z,21.80
2019-04-22T18:26:12.588Z,21.60
2019-04-22T18:28:43.576Z,21.50
2019-04-22T18:31:13.900Z,21.40
2019-04-22T18:33:46.432Z,21.20
2019-04-22T18:36:16.982Z,20.70
2019-04-22T18:38:51.501Z,20.60
2019-04-22T18:41:21.161Z,20.40
2019-04-22T18:43:51.741Z,20.30
2019-04-22T18:46:22.393Z,20.00
2019-04-22T18:48:55.750Z,19.80
2019-04-22T18:51:36.879Z,19.70
2019-04-22T18:54:30.914Z,19.60
2019-04-22T18:57:05.318Z,19.60
2019-04-22T18:59:22.524Z,19.40
2019-04-22T19:01:46.070Z,19.30
2019-04-22T19:04:24.378Z,18.80
2019-04-22T19:07:12.139Z,18.70
2019-04-22T19:09:42.766Z,18.30
2019-04-22T19:12:25.731Z,18.30
2019-04-22T19:17:28.469Z,17.80
2019-04-22T19:19:49.782Z,18.00
2019-04-22T19:22:17.733Z,17.90
2019-04-22T19:24:41.828Z,17.60
2019-04-22T19:27:16.302Z,17.70
2019-04-22T19:29:54.429Z,17.90
2019-04-22T19:32:21.368Z,17.40
2019-04-22T19:34:48.243Z,17.50
2019-04-22T19:37:17.445Z,17.40
2019-04-22T19:40:06.270Z,17.30
2019-04-22T19:42:30.506Z,17.60
2019-04-22T19:44:55.008Z,17.50
2019-04-22T19:47:43.330Z,17.40
2019-04-22T19:50:05.893Z,17.70
2019-04-22T19:52:28.671Z,17.30
2019-04-22T19:55:06.489Z,17.10
2019-04-22T19:57:27.602Z,17.20
2019-04-22T20:00:01.878Z,17.00
2019-04-22T20:02:59.243Z,17.20
2019-04-22T20:05:54.584Z,17.30
2019-04-22T20:08:26.749Z,17.60
2019-04-22T20:10:51.199Z,17.60
2019-04-22T20:13:31.909Z,17.60
2019-04-22T20:15:47.388Z,17.80
2019-04-22T20:18:34.352Z,17.80
2019-04-22T20:20:58.359Z,17.90
2019-04-22T20:23:22.980Z,18.00
2019-04-22T20:25:51.169Z,18.30
2019-04-22T20:28:32.648Z,18.20
2019-04-22T20:31:03.254Z,18.30
2019-04-22T20:33:36.849Z,18.50
2019-04-22T20:36:12.796Z,18.50
2019-04-22T20:38:34.254Z,18.40
2019-04-22T20:41:02.761Z,18.60
2019-04-22T20:43:41.856Z,18.70
2019-04-22T20:46:11.271Z,18.80
2019-04-22T20:48:44.099Z,18.80
2019-04-22T20:51:11.369Z,18.80
2019-04-22T20:53:46.130Z,18.80
2019-04-22T20:56:09.951Z,18.80
2019-04-22T20:58:49.985Z,18.80
2019-04-22T21:01:06.696Z,18.80
2019-04-22T21:03:33.808Z,18.80
2019-04-22T21:06:14.837Z,18.70
2019-04-22T21:08:47.569Z,18.80
2019-04-22T21:11:15.323Z,18.60
2019-04-22T21:13:48.049Z,18.70
2019-04-22T21:16:22.043Z,18.70
2019-04-22T21:18:44.596Z,18.80
2019-04-22T21:21:28.126Z,18.70
2019-04-22T21:23:45.889Z,18.60
2019-04-22T21:26:24.292Z,18.60
2019-04-22T21:28:53.840Z,18.50
2019-04-22T21:31:29.638Z,18.40
2019-04-22T21:34:02.265Z,18.50
2019-04-22T21:36:35.362Z,18.50
2019-04-22T21:39:00.863Z,18.50
2019-04-22T21:41:28.172Z,18.40
2019-04-22T21:43:58.047Z,18.50
2019-04-22T21:46:33.877Z,18.50
2019-04-22T21:49:05.811Z,18.30
2019-04-22T21:51:39.407Z,18.40
2019-04-22T21:54:09.676Z,18.30
2019-04-22T21:57:07.536Z,18.30
2019-04-22T21:59:24.052Z,18.30
2019-04-22T22:02:05.623Z,18.20
2019-04-22T22:04:32.569Z,18.20
2019-04-22T22:06:54.588Z,18.20
2019-04-22T22:09:39.088Z,18.20
2019-04-22T22:12:02.423Z,18.10
2019-04-22T22:14:31.757Z,18.10
2019-04-22T22:17:01.324Z,18.30
2019-04-22T22:19:39.702Z,18.10
2019-04-22T22:22:15.167Z,18.10
2019-04-22T22:24:45.249Z,18.00
2019-04-22T22:27:14.381Z,18.00
2019-04-22T22:30:06.630Z,18.00
2019-04-22T22:32:16.524Z,18.00
2019-04-22T22:34:46.149Z,18.00
2019-04-22T22:37:06.348Z,17.80
2019-04-22T22:39:39.196Z,17.90
2019-04-22T22:41:57.674Z,17.90
2019-04-22T22:44:35.763Z,17.80
2019-04-22T22:47:16.746Z,17.70
2019-04-22T22:49:53.194Z,17.70
2019-04-22T22:52:45.206Z,17.70
2019-04-22T22:54:53.708Z,17.70
2019-04-22T22:57:28.996Z,17.60
2019-04-22T22:59:57.725Z,17.60
2019-04-22T23:02:22.937Z,17.60
2019-04-22T23:04:57.499Z,17.60
2019-04-22T23:07:30.023Z,17.60
2019-04-22T23:10:01.574Z,17.50
2019-04-22T23:14:59.044Z,17.50
2019-04-22T23:17:18.133Z,17.40
2019-04-22T23:19:47.593Z,17.40
2019-04-22T23:22:21.967Z,17.50
2019-04-22T23:25:14.962Z,17.40
2019-04-22T23:27:42.062Z,17.40
2019-04-22T23:30:32.219Z,17.40
2019-04-22T23:33:13.224Z,17.40
2019-04-22T23:35:53.191Z,17.40
2019-04-22T23:38:31.890Z,17.30
2019-04-22T23:41:00.179Z,17.30
2019-04-22T23:43:34.044Z,17.40
2019-04-22T23:46:04.304Z,17.30
2019-04-22T23:48:29.511Z,17.10
2019-04-22T23:51:09.379Z,17.10
2019-04-22T23:53:57.973Z,17.10
2019-04-22T23:56:07.916Z,17.10
